createdAt,value
2022-10-19T00:02:19.613Z,9.60
2022-10-19T00:04:46.725Z,9.60
2022-10-19T00:07:13.780Z,9.50
2022-10-19T00:09:42.898Z,9.50
2022-10-19T00:12:10.039Z,9.50
2022-10-19T00:14:37.124Z,9.50
2022-10-19T00:17:04.503Z,9.50
2022-10-19T00:19:31.748Z,9.50
2022-10-19T00:21:58.913Z,9.40
2022-10-19T00:24:26.115Z,9.40
2022-10-19T00:26:53.268Z,9.40
2022-10-19T00:29:20.436Z,9.30
2022-10-19T00:31:49.264Z,9.40
2022-10-19T00:34:16.793Z,9.30
2022-10-19T00:36:44.159Z,9.30
2022-10-19T00:39:12.979Z,9.30
2022-10-19T00:41:40.785Z,9.30
2022-10-19T00:44:13.826Z,9.20
2022-10-19T00:46:42.715Z,9.20
2022-10-19T00:49:13.249Z,9.20
2022-10-19T00:51:42.503Z,9.20
2022-10-19T00:54:10.165Z,9.10
2022-10-19T00:56:39.787Z,9.10
2022-10-19T00:59:08.059Z,9.10
2022-10-19T01:01:35.317Z,9.10
2022-10-19T01:04:03.210Z,9.20
2022-10-19T01:06:30.730Z,9.10
2022-10-19T01:08:57.844Z,9.10
2022-10-19T01:11:42.988Z,9.10
2022-10-19T01:14:28.921Z,9.10
2022-10-19T01:17:02.212Z,9.10
2022-10-19T01:19:44.711Z,9.10
2022-10-19T01:22:11.825Z,9.10
2022-10-19T01:24:40.683Z,9.10
2022-10-19T01:27:14.057Z,9.00
2022-10-19T01:29:41.632Z,9.00
2022-10-19T01:32:08.750Z,9.00
2022-10-19T01:34:44.160Z,9.00
2022-10-19T01:37:17.047Z,9.00
2022-10-19T01:39:50.030Z,9.00
2022-10-19T01:42:17.165Z,9.00
2022-10-19T01:44:50.876Z,9.00
2022-10-19T01:47:26.800Z,8.90
2022-10-19T01:49:56.458Z,8.90
2022-10-19T01:52:27.377Z,8.90
2022-10-19T01:54:57.540Z,8.90
2022-10-19T01:57:27.202Z,8.80
2022-10-19T01:59:54.768Z,8.90
2022-10-19T02:02:22.366Z,8.90
2022-10-19T02:04:50.204Z,8.80
2022-10-19T02:07:18.776Z,8.80
2022-10-19T02:09:45.815Z,8.70
2022-10-19T02:12:13.604Z,8.70
2022-10-19T02:14:42.491Z,8.70
2022-10-19T02:17:11.481Z,8.60
2022-10-19T02:19:38.909Z,8.50
2022-10-19T02:22:06.782Z,8.50
2022-10-19T02:24:33.929Z,8.40
2022-10-19T02:27:02.041Z,8.40
2022-10-19T02:29:29.161Z,8.40
2022-10-19T02:31:56.258Z,8.30
2022-10-19T02:34:23.451Z,8.30
2022-10-19T02:36:50.887Z,8.30
2022-10-19T02:39:18.079Z,8.30
2022-10-19T02:42:03.859Z,8.30
2022-10-19T02:44:47.438Z,8.30
2022-10-19T02:47:19.524Z,8.30
2022-10-19T02:49:46.919Z,8.30
2022-10-19T02:52:14.559Z,8.30
2022-10-19T02:54:43.051Z,8.20
2022-10-19T02:57:20.553Z,8.30
2022-10-19T02:59:47.955Z,8.20
2022-10-19T03:02:15.882Z,8.20
2022-10-19T03:04:45.013Z,8.10
2022-10-19T03:07:15.189Z,8.10
2022-10-19T03:09:42.773Z,8.10
2022-10-19T03:12:10.562Z,8.10
2022-10-19T03:14:37.749Z,8.10
2022-10-19T03:17:05.260Z,8.10
2022-10-19T03:19:32.387Z,8.00
2022-10-19T03:21:59.567Z,8.00
2022-10-19T03:24:26.754Z,7.90
2022-10-19T03:26:54.056Z,8.00
2022-10-19T03:29:21.254Z,7.90
2022-10-19T03:31:48.701Z,7.90
2022-10-19T03:34:16.305Z,7.80
2022-10-19T03:36:43.510Z,7.80
2022-10-19T03:39:12.122Z,7.70
2022-10-19T03:41:39.354Z,7.50
2022-10-19T03:44:07.391Z,7.50
2022-10-19T03:46:34.677Z,7.40
2022-10-19T03:49:02.632Z,7.20
2022-10-19T03:51:30.541Z,7.20
2022-10-19T03:54:02.100Z,7.00
2022-10-19T03:56:30.161Z,7.00
2022-10-19T03:58:58.103Z,6.90
2022-10-19T04:01:44.960Z,6.80
2022-10-19T04:04:13.781Z,6.70
2022-10-19T04:06:42.121Z,6.70
2022-10-19T04:09:10.182Z,6.50
2022-10-19T04:11:38.050Z,6.50
2022-10-19T04:14:05.314Z,6.40
2022-10-19T04:16:32.926Z,6.40
2022-10-19T04:19:00.416Z,6.30
2022-10-19T04:21:27.482Z,6.30
2022-10-19T04:23:57.920Z,6.40
2022-10-19T04:26:24.928Z,6.50
2022-10-19T04:28:51.999Z,6.90
2022-10-19T04:31:19.325Z,6.70
2022-10-19T04:36:18.543Z,6.80
2022-10-19T04:38:45.599Z,6.80
2022-10-19T04:41:14.299Z,6.80
2022-10-19T04:43:41.480Z,6.70
2022-10-19T04:46:09.882Z,6.50
2022-10-19T04:48:37.765Z,6.50
2022-10-19T04:51:05.623Z,6.50
2022-10-19T04:53:33.553Z,6.40
2022-10-19T04:56:00.892Z,6.40
2022-10-19T04:58:27.978Z,6.40
2022-10-19T05:00:55.121Z,6.30
2022-10-19T05:03:22.224Z,6.30
2022-10-19T05:05:49.272Z,6.20
2022-10-19T05:08:16.581Z,6.10
2022-10-19T05:10:46.995Z,6.20
2022-10-19T05:13:15.018Z,6.20
2022-10-19T05:15:42.048Z,6.20
2022-10-19T05:18:09.264Z,6.20
2022-10-19T05:20:36.455Z,6.20
2022-10-19T05:23:06.371Z,6.30
2022-10-19T05:25:34.352Z,6.30
2022-10-19T05:28:01.398Z,6.30
2022-10-19T05:30:28.438Z,6.30
2022-10-19T05:32:55.596Z,6.20
2022-10-19T05:35:22.923Z,6.20
2022-10-19T05:37:54.200Z,6.20
2022-10-19T05:40:21.372Z,6.20
2022-10-19T05:42:48.417Z,6.20
2022-10-19T05:45:15.433Z,6.20
2022-10-19T05:47:42.558Z,6.10
2022-10-19T05:50:09.722Z,6.10
2022-10-19T05:52:36.809Z,6.10
2022-10-19T05:55:04.040Z,6.10
2022-10-19T05:57:33.100Z,6.00
2022-10-19T06:00:00.539Z,6.00
2022-10-19T06:02:27.562Z,5.90
2022-10-19T06:04:54.709Z,5.90
2022-10-19T06:07:21.763Z,5.90
2022-10-19T06:09:48.807Z,5.90
2022-10-19T06:12:16.426Z,6.00
2022-10-19T06:14:43.726Z,5.90
2022-10-19T06:17:11.045Z,5.90
2022-10-19T06:19:38.176Z,6.00
2022-10-19T06:22:05.268Z,6.10
2022-10-19T06:24:32.339Z,6.20
2022-10-19T06:26:59.368Z,6.40
2022-10-19T06:29:26.471Z,6.60
2022-10-19T06:31:54.740Z,6.80
2022-10-19T06:34:22.064Z,7.10
2022-10-19T06:36:49.174Z,7.40
2022-10-19T06:39:16.338Z,7.60
2022-10-19T06:41:43.342Z,7.90
2022-10-19T06:44:10.439Z,8.30
2022-10-19T06:46:37.553Z,8.50
2022-10-19T06:49:04.659Z,8.90
2022-10-19T06:51:34.244Z,8.90
2022-10-19T06:54:01.503Z,9.20
2022-10-19T06:56:28.573Z,10.00
2022-10-19T06:58:56.092Z,10.00
2022-10-19T07:01:23.657Z,10.20
2022-10-19T07:03:51.962Z,10.10
2022-10-19T07:06:19.474Z,9.50
2022-10-19T07:08:46.578Z,8.60
2022-10-19T07:11:17.806Z,8.20
2022-10-19T07:13:44.937Z,8.00
2022-10-19T07:16:16.184Z,7.80
2022-10-19T07:18:47.177Z,7.60
2022-10-19T07:21:15.244Z,7.40
2022-10-19T07:23:43.603Z,7.50
2022-10-19T07:26:15.158Z,7.30
2022-10-19T07:28:43.272Z,7.20
2022-10-19T07:31:12.398Z,7.40
2022-10-19T07:33:39.635Z,7.70
2022-10-19T07:36:08.539Z,8.60
2022-10-19T07:38:35.762Z,8.50
2022-10-19T07:41:05.929Z,8.40
2022-10-19T07:43:33.133Z,8.20
2022-10-19T07:46:01.271Z,7.90
2022-10-19T07:48:28.551Z,8.10
2022-10-19T07:50:55.928Z,8.10
2022-10-19T07:53:23.074Z,7.80
2022-10-19T07:55:50.392Z,7.80
2022-10-19T07:58:17.515Z,7.70
2022-10-19T08:00:44.641Z,7.90
2022-10-19T08:06:02.562Z,9.40
2022-10-19T08:08:30.014Z,11.40
2022-10-19T08:10:57.411Z,12.30
2022-10-19T08:13:24.484Z,13.60
2022-10-19T08:15:51.805Z,13.90
2022-10-19T08:18:18.891Z,14.90
2022-10-19T08:20:46.071Z,14.40
2022-10-19T08:23:13.092Z,13.70
2022-10-19T08:25:40.270Z,13.00
2022-10-19T08:28:07.347Z,12.00
2022-10-19T08:30:35.380Z,11.30
2022-10-19T08:33:03.298Z,11.40
2022-10-19T08:35:31.456Z,11.30
2022-10-19T08:37:59.064Z,12.00
2022-10-19T08:40:30.055Z,11.30
2022-10-19T08:43:03.156Z,10.40
2022-10-19T08:45:42.707Z,10.10
2022-10-19T08:48:33.387Z,9.60
2022-10-19T08:51:01.199Z,9.30
2022-10-19T08:53:44.175Z,9.00
2022-10-19T08:56:45.652Z,8.50
2022-10-19T08:59:21.835Z,7.90
2022-10-19T09:01:48.908Z,7.70
2022-10-19T09:04:27.984Z,7.30
2022-10-19T09:07:04.221Z,7.60
2022-10-19T09:09:32.079Z,8.20
2022-10-19T09:12:03.646Z,8.50
2022-10-19T09:14:33.619Z,9.20
2022-10-19T09:17:02.815Z,9.80
2022-10-19T09:19:32.182Z,10.30
2022-10-19T09:22:08.750Z,9.80
2022-10-19T09:24:43.037Z,9.10
2022-10-19T09:27:21.785Z,8.00
2022-10-19T09:29:59.153Z,7.60
2022-10-19T09:32:28.890Z,7.40
2022-10-19T09:35:02.628Z,7.30
2022-10-19T09:40:02.257Z,7.60
2022-10-19T09:42:30.676Z,8.40
2022-10-19T09:44:59.552Z,9.00
2022-10-19T09:47:33.793Z,10.10
2022-10-19T09:50:09.191Z,12.00
2022-10-19T09:52:38.214Z,14.20
2022-10-19T09:55:05.251Z,12.80
2022-10-19T09:57:32.648Z,11.00
2022-10-19T10:00:00.304Z,9.90
2022-10-19T10:02:34.193Z,8.90
2022-10-19T10:05:13.496Z,9.20
2022-10-19T10:07:40.780Z,10.90
2022-10-19T10:10:28.250Z,11.10
2022-10-19T10:13:00.803Z,10.80
2022-10-19T10:15:29.436Z,11.00
2022-10-19T10:17:57.428Z,11.30
2022-10-19T10:20:28.030Z,10.80
2022-10-19T10:22:57.911Z,10.80
2022-10-19T10:25:26.993Z,10.50
2022-10-19T10:28:17.085Z,10.20
2022-10-19T10:30:45.830Z,10.00
2022-10-19T10:33:43.840Z,10.10
2022-10-19T10:36:12.626Z,10.00
2022-10-19T10:38:41.505Z,10.20
2022-10-19T10:41:14.009Z,10.50
2022-10-19T10:46:34.176Z,12.00
2022-10-19T10:49:05.291Z,11.60
2022-10-19T10:51:39.269Z,13.20
2022-10-19T10:54:17.107Z,13.90
2022-10-19T10:56:45.260Z,13.60
2022-10-19T10:59:25.823Z,13.30
2022-10-19T11:02:13.319Z,14.80
2022-10-19T11:04:42.806Z,16.60
2022-10-19T11:07:17.911Z,17.30
2022-10-19T11:09:48.523Z,17.40
2022-10-19T11:12:17.306Z,15.20
2022-10-19T11:14:44.788Z,15.90
2022-10-19T11:17:18.651Z,15.00
2022-10-19T11:19:46.128Z,13.10
2022-10-19T11:22:22.400Z,12.00
2022-10-19T11:25:04.554Z,13.40
2022-10-19T11:27:43.734Z,15.10
2022-10-19T11:30:16.836Z,16.00
2022-10-19T11:32:53.371Z,16.60
2022-10-19T11:35:32.942Z,17.40
2022-10-19T11:38:18.776Z,18.20
2022-10-19T11:44:11.349Z,17.10
2022-10-19T11:47:03.018Z,14.40
2022-10-19T11:49:36.392Z,12.20
2022-10-19T11:52:03.418Z,10.60
2022-10-19T11:54:45.583Z,10.30
2022-10-19T11:57:16.560Z,9.70
2022-10-19T11:59:52.473Z,9.40
2022-10-19T12:02:39.853Z,9.70
2022-10-19T12:05:13.099Z,10.20
2022-10-19T12:07:47.194Z,10.20
2022-10-19T12:10:27.479Z,10.40
2022-10-19T12:12:59.892Z,10.10
2022-10-19T12:15:40.713Z,10.10
2022-10-19T12:18:15.269Z,9.90
2022-10-19T12:20:48.375Z,9.90
2022-10-19T12:23:33.452Z,10.00
2022-10-19T12:26:02.477Z,9.80
2022-10-19T12:28:31.509Z,9.90
2022-10-19T12:31:00.004Z,10.00
2022-10-19T12:33:31.254Z,9.90
2022-10-19T12:36:17.765Z,10.10
2022-10-19T12:39:03.882Z,9.70
2022-10-19T12:41:37.401Z,9.20
2022-10-19T12:44:11.027Z,9.30
2022-10-19T12:46:47.005Z,9.80
2022-10-19T12:49:30.969Z,10.20
2022-10-19T12:51:59.771Z,10.30
2022-10-19T12:54:30.732Z,10.20
2022-10-19T12:56:59.344Z,10.40
2022-10-19T12:59:29.782Z,10.50
2022-10-19T13:01:59.361Z,10.60
2022-10-19T13:04:32.194Z,10.90
2022-10-19T13:07:11.146Z,11.20
2022-10-19T13:09:43.118Z,11.70
2022-10-19T13:12:21.297Z,12.30
2022-10-19T13:14:55.530Z,13.30
2022-10-19T13:17:22.843Z,14.80
2022-10-19T13:19:50.511Z,13.50
2022-10-19T13:22:26.185Z,12.10
2022-10-19T13:25:13.602Z,12.60
2022-10-19T13:27:40.724Z,12.30
2022-10-19T13:30:28.145Z,11.30
2022-10-19T13:32:55.698Z,10.80
2022-10-19T13:35:35.908Z,11.50
2022-10-19T13:38:21.879Z,11.50
2022-10-19T13:40:49.772Z,11.40
2022-10-19T13:43:22.224Z,12.10
2022-10-19T13:45:59.077Z,11.20
2022-10-19T13:48:32.307Z,10.20
2022-10-19T13:51:05.495Z,9.80
2022-10-19T13:53:40.979Z,9.50
2022-10-19T13:56:19.255Z,9.20
2022-10-19T13:58:58.752Z,9.10
2022-10-19T14:01:36.227Z,9.10
2022-10-19T14:04:05.563Z,9.00
2022-10-19T14:06:36.485Z,8.80
2022-10-19T14:09:30.700Z,8.50
2022-10-19T14:12:28.070Z,8.30
2022-10-19T14:14:55.992Z,8.40
2022-10-19T14:17:26.488Z,8.70
2022-10-19T14:19:57.396Z,8.80
2022-10-19T14:22:33.627Z,8.70
2022-10-19T14:25:06.191Z,8.60
2022-10-19T14:27:34.347Z,8.40
2022-10-19T14:30:02.600Z,8.20
2022-10-19T14:32:30.482Z,8.00
2022-10-19T14:35:06.117Z,7.90
2022-10-19T14:37:33.956Z,7.80
2022-10-19T14:40:03.628Z,7.70
2022-10-19T14:42:38.250Z,7.50
2022-10-19T14:45:07.108Z,7.40
2022-10-19T14:47:34.379Z,7.30
2022-10-19T14:50:03.224Z,7.30
2022-10-19T14:52:37.499Z,7.20
2022-10-19T14:55:12.738Z,7.20
2022-10-19T14:57:43.823Z,7.10
2022-10-19T15:02:59.416Z,7.00
2022-10-19T15:05:28.315Z,7.00
2022-10-19T15:07:55.716Z,6.90
2022-10-19T15:10:35.633Z,6.90
2022-10-19T15:13:05.432Z,6.90
2022-10-19T15:15:34.552Z,6.90
2022-10-19T15:18:02.078Z,6.90
2022-10-19T15:20:44.290Z,6.90
2022-10-19T15:23:28.879Z,6.80
2022-10-19T15:26:00.354Z,6.90
2022-10-19T15:28:41.393Z,6.90
2022-10-19T15:31:28.376Z,6.90
2022-10-19T15:33:59.920Z,6.90
2022-10-19T15:36:27.667Z,6.90
2022-10-19T15:39:33.075Z,7.00
2022-10-19T15:42:23.921Z,7.00
2022-10-19T15:44:51.401Z,6.90
2022-10-19T15:47:20.211Z,6.90
2022-10-19T15:49:56.061Z,6.90
2022-10-19T15:52:24.503Z,6.80
2022-10-19T15:54:52.597Z,6.80
2022-10-19T15:57:25.498Z,6.70
2022-10-19T15:59:52.713Z,6.70
2022-10-19T16:02:19.926Z,6.70
2022-10-19T16:04:47.009Z,6.70
2022-10-19T16:07:16.917Z,6.70
2022-10-19T16:09:44.079Z,6.70
2022-10-19T16:12:11.829Z,6.70
2022-10-19T16:14:39.062Z,6.60
2022-10-19T16:17:06.158Z,6.60
2022-10-19T16:19:33.180Z,6.60
2022-10-19T16:22:00.405Z,6.60
2022-10-19T16:24:27.897Z,6.60
2022-10-19T16:26:54.936Z,6.60
2022-10-19T16:29:25.371Z,6.60
2022-10-19T16:31:55.137Z,6.50
2022-10-19T16:34:22.346Z,6.50
2022-10-19T16:36:49.929Z,6.60
2022-10-19T16:39:17.148Z,6.60
2022-10-19T16:41:44.616Z,6.70
2022-10-19T16:44:12.708Z,6.70
2022-10-19T16:46:39.786Z,6.70
2022-10-19T16:49:06.996Z,6.70
2022-10-19T16:51:36.065Z,6.70
2022-10-19T16:54:04.245Z,6.80
2022-10-19T16:56:31.574Z,6.80
2022-10-19T16:59:06.429Z,6.80
2022-10-19T17:01:34.616Z,6.80
2022-10-19T17:04:02.218Z,6.90
2022-10-19T17:06:29.463Z,6.80
2022-10-19T17:11:45.190Z,6.90
2022-10-19T17:14:13.024Z,6.90
2022-10-19T17:16:40.350Z,7.00
2022-10-19T17:19:08.797Z,6.90
2022-10-19T17:21:39.803Z,6.90
2022-10-19T17:24:08.185Z,6.80
2022-10-19T17:26:39.407Z,6.80
2022-10-19T17:29:07.123Z,6.80
2022-10-19T17:31:34.906Z,6.80
2022-10-19T17:34:02.483Z,6.90
2022-10-19T17:36:30.986Z,6.80
2022-10-19T17:39:02.539Z,6.80
2022-10-19T17:41:30.192Z,6.80
2022-10-19T17:43:57.702Z,6.80
2022-10-19T17:46:26.972Z,6.70
2022-10-19T17:48:54.913Z,6.70
2022-10-19T17:51:29.636Z,6.60
2022-10-19T17:53:58.155Z,6.60
2022-10-19T17:56:25.724Z,6.60
2022-10-19T17:58:53.261Z,6.60
2022-10-19T18:01:21.565Z,6.70
2022-10-19T18:03:49.632Z,6.70
2022-10-19T18:06:24.861Z,6.70
2022-10-19T18:08:53.420Z,6.60
2022-10-19T18:11:28.678Z,6.50
2022-10-19T18:13:57.599Z,6.40
2022-10-19T18:16:29.936Z,6.30
2022-10-19T18:18:58.407Z,6.20
2022-10-19T18:21:27.986Z,6.10
2022-10-19T18:23:56.301Z,6.10
2022-10-19T18:26:24.470Z,6.10
2022-10-19T18:28:52.769Z,6.20
2022-10-19T18:31:19.945Z,6.20
2022-10-19T18:33:47.803Z,6.30
2022-10-19T18:36:15.240Z,6.40
2022-10-19T18:38:42.457Z,6.50
2022-10-19T18:43:41.772Z,6.60
2022-10-19T18:46:09.630Z,6.70
2022-10-19T18:48:38.429Z,6.80
2022-10-19T18:51:07.543Z,6.90
2022-10-19T18:53:35.333Z,6.80
2022-10-19T18:56:06.745Z,6.90
2022-10-19T18:58:34.083Z,6.80
2022-10-19T19:01:04.521Z,6.80
2022-10-19T19:03:31.629Z,6.70
2022-10-19T19:05:59.494Z,6.70
2022-10-19T19:08:27.169Z,6.70
2022-10-19T19:10:54.691Z,6.60
2022-10-19T19:13:22.228Z,6.60
2022-10-19T19:15:59.073Z,6.50
2022-10-19T19:18:26.316Z,6.50
2022-10-19T19:20:53.524Z,6.40
2022-10-19T19:23:20.727Z,6.40
2022-10-19T19:25:48.329Z,6.40
2022-10-19T19:28:15.376Z,6.30
2022-10-19T19:30:43.589Z,6.30
2022-10-19T19:33:11.045Z,6.20
2022-10-19T19:35:44.992Z,6.20
2022-10-19T19:38:12.963Z,6.10
2022-10-19T19:40:41.336Z,6.10
2022-10-19T19:43:09.120Z,6.10
2022-10-19T19:45:36.630Z,6.10
2022-10-19T19:48:04.441Z,6.10
2022-10-19T19:50:32.488Z,6.10
2022-10-19T19:52:59.650Z,6.00
2022-10-19T19:55:27.210Z,6.00
2022-10-19T19:57:54.810Z,5.90
2022-10-19T20:00:22.413Z,5.90
2022-10-19T20:02:53.396Z,5.90
2022-10-19T20:05:20.761Z,5.90
2022-10-19T20:07:47.879Z,5.90
2022-10-19T20:10:18.322Z,5.90
2022-10-19T20:12:46.589Z,5.80
2022-10-19T20:15:14.762Z,5.80
2022-10-19T20:17:42.457Z,5.60
2022-10-19T20:20:10.311Z,5.50
2022-10-19T20:22:37.882Z,5.40
2022-10-19T20:25:05.311Z,5.40
2022-10-19T20:27:35.910Z,5.40
2022-10-19T20:30:03.581Z,5.40
2022-10-19T20:32:31.517Z,5.40
2022-10-19T20:34:58.878Z,5.30
2022-10-19T20:37:26.837Z,5.10
2022-10-19T20:39:53.924Z,5.00
2022-10-19T20:42:22.040Z,4.80
2022-10-19T20:44:49.239Z,4.60
2022-10-19T20:47:16.450Z,4.50
2022-10-19T20:49:43.545Z,4.30
2022-10-19T20:52:10.601Z,4.20
2022-10-19T20:54:37.706Z,4.20
2022-10-19T20:57:04.905Z,4.30
2022-10-19T20:59:33.521Z,4.10
2022-10-19T21:02:00.731Z,4.10
2022-10-19T21:04:28.011Z,4.10
2022-10-19T21:06:55.231Z,4.00
2022-10-19T21:09:23.556Z,4.10
2022-10-19T21:11:51.749Z,4.10
2022-10-19T21:14:26.956Z,4.20
2022-10-19T21:16:58.270Z,4.20
2022-10-19T21:19:26.390Z,4.30
2022-10-19T21:21:57.673Z,4.30
2022-10-19T21:24:26.780Z,4.40
2022-10-19T21:26:53.856Z,4.50
2022-10-19T21:29:21.346Z,4.60
2022-10-19T21:31:49.487Z,4.60
2022-10-19T21:34:19.333Z,4.80
2022-10-19T21:36:46.865Z,4.80
2022-10-19T21:39:14.061Z,4.90
2022-10-19T21:41:41.272Z,4.90
2022-10-19T21:44:08.671Z,4.90
2022-10-19T21:46:35.730Z,4.80
2022-10-19T21:49:02.933Z,4.70
2022-10-19T21:51:32.410Z,4.60
2022-10-19T21:53:59.574Z,4.50
2022-10-19T21:56:26.861Z,4.40
2022-10-19T21:58:54.451Z,4.30
2022-10-19T22:01:23.079Z,4.30
2022-10-19T22:03:50.587Z,4.20
2022-10-19T22:06:17.628Z,4.20
2022-10-19T22:08:45.667Z,4.20
2022-10-19T22:11:14.010Z,4.10
2022-10-19T22:13:41.160Z,3.90
2022-10-19T22:16:10.963Z,3.80
2022-10-19T22:18:38.229Z,3.70
2022-10-19T22:21:12.826Z,3.60
2022-10-19T22:23:40.096Z,3.50
2022-10-19T22:26:18.116Z,3.40
2022-10-19T22:28:45.391Z,3.30
2022-10-19T22:31:12.792Z,3.20
2022-10-19T22:33:40.007Z,3.20
2022-10-19T22:36:08.372Z,3.20
2022-10-19T22:38:36.192Z,3.20
2022-10-19T22:41:40.331Z,3.20
2022-10-19T22:44:27.186Z,3.20
2022-10-19T22:46:54.434Z,3.30
2022-10-19T22:49:21.527Z,3.40
2022-10-19T22:51:48.705Z,3.50
2022-10-19T22:54:15.819Z,3.60
2022-10-19T22:56:43.156Z,3.60
2022-10-19T22:59:10.230Z,3.50
2022-10-19T23:01:37.355Z,3.50
2022-10-19T23:04:04.574Z,3.40
2022-10-19T23:06:31.623Z,3.30
2022-10-19T23:08:58.710Z,3.30
2022-10-19T23:11:26.019Z,3.20
2022-10-19T23:13:53.159Z,3.10
2022-10-19T23:16:20.499Z,3.10
2022-10-19T23:18:47.858Z,3.10
2022-10-19T23:21:15.178Z,3.10
2022-10-19T23:23:42.682Z,3.10
2022-10-19T23:26:12.192Z,3.00
2022-10-19T23:28:40.662Z,3.00
2022-10-19T23:31:12.734Z,2.90
2022-10-19T23:33:40.115Z,3.00
2022-10-19T23:36:14.897Z,3.00
2022-10-19T23:38:42.975Z,3.00
2022-10-19T23:41:10.439Z,3.00
2022-10-19T23:43:37.835Z,3.10
2022-10-19T23:46:04.971Z,3.10
2022-10-19T23:48:32.513Z,3.20
2022-10-19T23:51:00.825Z,3.20
2022-10-19T23:53:28.582Z,3.20
2022-10-19T23:56:09.113Z,3.20
2022-10-19T23:58:36.207Z,3.10
